sensor_id;sensor_type;location;lat;lon;timestamp;pressure;altitude;pressure_sealevel;temperature;humidity
10988;BME280;5547;42.672;23.230;2022-08-01T00:02:12;93404.53;;;14.30;73.24
10988;BME280;5547;42.672;23.230;2022-08-01T00:04:38;93406.34;;;14.20;73.04
10988;BME280;5547;42.672;23.230;2022-08-01T00:07:03;93337.53;;;13.66;72.85
10988;BME280;5547;42.672;23.230;2022-08-01T00:09:29;93352.06;;;13.65;73.04
10988;BME280;5547;42.672;23.230;2022-08-01T00:11:54;93387.09;;;13.83;73.53
10988;BME280;5547;42.672;23.230;2022-08-01T00:14:20;93403.28;;;13.93;73.67
10988;BME280;5547;42.672;23.230;2022-08-01T00:16:45;93398.38;;;13.91;73.65
10988;BME280;5547;42.672;23.230;2022-08-01T00:19:11;93368.09;;;13.65;73.60
10988;BME280;5547;42.672;23.230;2022-08-01T00:21:36;93389.41;;;13.69;73.26
10988;BME280;5547;42.672;23.230;2022-08-01T00:24:02;93339.78;;;13.38;72.97
10988;BME280;5547;42.672;23.230;2022-08-01T00:26:27;93398.38;;;13.75;72.85
10988;BME280;5547;42.672;23.230;2022-08-01T00:28:53;93401.50;;;13.73;72.97
10988;BME280;5547;42.672;23.230;2022-08-01T00:31:18;93383.16;;;13.59;73.29
10988;BME280;5547;42.672;23.230;2022-08-01T00:33:43;93400.16;;;13.65;73.67
10988;BME280;5547;42.672;23.230;2022-08-01T00:36:09;93338.03;;;13.15;74.43
10988;BME280;5547;42.672;23.230;2022-08-01T00:38:34;93378.84;;;13.32;74.83
10988;BME280;5547;42.672;23.230;2022-08-01T00:41:00;93402.63;;;13.43;73.88
10988;BME280;5547;42.672;23.230;2022-08-01T00:43:25;93372.25;;;13.20;73.60
10988;BME280;5547;42.672;23.230;2022-08-01T00:45:51;93399.38;;;13.35;74.54
10988;BME280;5547;42.672;23.230;2022-08-01T00:48:16;93361.16;;;13.06;74.82
10988;BME280;5547;42.672;23.230;2022-08-01T00:50:42;93360.06;;;13.03;74.68
10988;BME280;5547;42.672;23.230;2022-08-01T00:53:07;93394.34;;;13.21;74.95
10988;BME280;5547;42.672;23.230;2022-08-01T00:55:32;93398.22;;;13.20;74.99
10988;BME280;5547;42.672;23.230;2022-08-01T00:57:58;93393.63;;;13.20;75.16
10988;BME280;5547;42.672;23.230;2022-08-01T01:00:25;93387.53;;;13.20;75.01
10988;BME280;5547;42.672;23.230;2022-08-01T01:02:50;93336.66;;;12.78;75.16
10988;BME280;5547;42.672;23.230;2022-08-01T01:05:16;93305.94;;;12.53;74.90
10988;BME280;5547;42.672;23.230;2022-08-01T01:12:56;93385.84;;;13.10;73.81
10988;BME280;5547;42.672;23.230;2022-08-01T01:15:33;93381.69;;;13.09;73.83
10988;BME280;5547;42.672;23.230;2022-08-01T01:18:25;93380.28;;;13.04;73.73
10988;BME280;5547;42.672;23.230;2022-08-01T01:31:35;93126.81;;;11.20;72.29
10988;BME280;5547;42.672;23.230;2022-08-01T01:34:02;93309.53;;;12.47;72.45
10988;BME280;5547;42.672;23.230;2022-08-01T01:36:31;93283.69;;;12.27;70.85
10988;BME280;5547;42.672;23.230;2022-08-01T01:38:58;93358.47;;;12.89;71.15
10988;BME280;5547;42.672;23.230;2022-08-01T01:41:25;93354.16;;;12.95;70.18
10988;BME280;5547;42.672;23.230;2022-08-01T01:43:52;93266.84;;;12.47;69.14
10988;BME280;5547;42.672;23.230;2022-08-01T01:46:22;93287.28;;;12.70;67.22
10988;BME280;5547;42.672;23.230;2022-08-01T01:48:49;93136.38;;;11.90;66.05
10988;BME280;5547;42.672;23.230;2022-08-01T01:51:15;93257.59;;;12.68;65.51
10988;BME280;5547;42.672;23.230;2022-08-01T01:53:43;93344.13;;;13.32;65.63
10988;BME280;5547;42.672;23.230;2022-08-01T01:56:09;93349.72;;;13.38;65.01
10988;BME280;5547;42.672;23.230;2022-08-01T01:58:37;93343.06;;;13.30;65.13
10988;BME280;5547;42.672;23.230;2022-08-01T02:01:04;93343.28;;;13.19;66.11
10988;BME280;5547;42.672;23.230;2022-08-01T02:03:32;93237.50;;;12.30;66.84
10988;BME280;5547;42.672;23.230;2022-08-01T02:06:02;93345.06;;;13.09;64.99
10988;BME280;5547;42.672;23.230;2022-08-01T02:08:29;93349.50;;;12.99;65.99
10988;BME280;5547;42.672;23.230;2022-08-01T02:10:55;93326.03;;;12.74;66.34
10988;BME280;5547;42.672;23.230;2022-08-01T02:13:40;93320.63;;;12.78;65.66
10988;BME280;5547;42.672;23.230;2022-08-01T02:16:08;93321.28;;;12.98;64.60
10988;BME280;5547;42.672;23.230;2022-08-01T02:18:36;93232.16;;;12.47;63.69
10988;BME280;5547;42.672;23.230;2022-08-01T02:21:03;93330.09;;;13.28;63.91
10988;BME280;5547;42.672;23.230;2022-08-01T02:23:32;93334.19;;;13.33;63.81
10988;BME280;5547;42.672;23.230;2022-08-01T02:26:00;93329.94;;;13.35;64.31
10988;BME280;5547;42.672;23.230;2022-08-01T02:28:33;93322.81;;;13.45;63.93
10988;BME280;5547;42.672;23.230;2022-08-01T02:31:05;93333.22;;;13.56;64.23
10988;BME280;5547;42.672;23.230;2022-08-01T02:33:38;93314.28;;;13.50;64.57
10988;BME280;5547;42.672;23.230;2022-08-01T02:36:05;93331.34;;;13.69;63.37
10988;BME280;5547;42.672;23.230;2022-08-01T02:38:34;93277.84;;;13.27;64.35
10988;BME280;5547;42.672;23.230;2022-08-01T02:41:05;93153.56;;;12.51;62.61
10988;BME280;5547;42.672;23.230;2022-08-01T02:43:34;93322.66;;;13.65;62.63
10988;BME280;5547;42.672;23.230;2022-08-01T02:46:04;93302.34;;;13.55;62.35
10988;BME280;5547;42.672;23.230;2022-08-01T02:48:33;93314.31;;;13.63;63.41
10988;BME280;5547;42.672;23.230;2022-08-01T02:51:01;93317.66;;;13.67;61.91
10988;BME280;5547;42.672;23.230;2022-08-01T02:53:31;93306.00;;;13.61;62.96
10988;BME280;5547;42.672;23.230;2022-08-01T02:55:58;93318.84;;;13.79;62.74
10988;BME280;5547;42.672;23.230;2022-08-01T02:58:25;93089.63;;;12.02;63.84
10988;BME280;5547;42.672;23.230;2022-08-01T03:00:51;93311.22;;;13.52;63.53
10988;BME280;5547;42.672;23.230;2022-08-01T03:03:18;93290.84;;;13.41;62.64
10988;BME280;5547;42.672;23.230;2022-08-01T03:05:44;93262.66;;;13.40;62.07
10988;BME280;5547;42.672;23.230;2022-08-01T03:08:11;93323.59;;;13.87;61.95
10988;BME280;5547;42.672;23.230;2022-08-01T03:10:40;93322.22;;;13.96;60.60
10988;BME280;5547;42.672;23.230;2022-08-01T03:13:08;93314.50;;;13.98;62.01
10988;BME280;5547;42.672;23.230;2022-08-01T03:15:38;93322.19;;;13.83;62.97
10988;BME280;5547;42.672;23.230;2022-08-01T03:18:06;93324.56;;;13.94;60.72
10988;BME280;5547;42.672;23.230;2022-08-01T03:20:33;93307.34;;;13.82;60.06
10988;BME280;5547;42.672;23.230;2022-08-01T03:23:07;93328.66;;;14.11;60.78
10988;BME280;5547;42.672;23.230;2022-08-01T03:25:36;93312.56;;;13.85;60.75
10988;BME280;5547;42.672;23.230;2022-08-01T03:28:04;93331.56;;;14.17;60.45
10988;BME280;5547;42.672;23.230;2022-08-01T03:30:32;93247.72;;;13.56;61.12
10988;BME280;5547;42.672;23.230;2022-08-01T03:32:59;93307.13;;;14.02;61.90
10988;BME280;5547;42.672;23.230;2022-08-01T03:35:33;93338.63;;;14.23;60.83
10988;BME280;5547;42.672;23.230;2022-08-01T03:38:01;93293.97;;;13.95;61.01
10988;BME280;5547;42.672;23.230;2022-08-01T03:40:51;93331.34;;;14.37;60.85
10988;BME280;5547;42.672;23.230;2022-08-01T03:43:28;93335.41;;;14.41;60.40
10988;BME280;5547;42.672;23.230;2022-08-01T03:46:00;93336.94;;;14.55;60.15
10988;BME280;5547;42.672;23.230;2022-08-01T03:48:28;93289.63;;;14.39;59.27
10988;BME280;5547;42.672;23.230;2022-08-01T03:50:58;93269.31;;;14.42;58.02
10988;BME280;5547;42.672;23.230;2022-08-01T03:53:28;93333.72;;;14.99;58.41
10988;BME280;5547;42.672;23.230;2022-08-01T03:55:54;93336.38;;;15.11;57.91
10988;BME280;5547;42.672;23.230;2022-08-01T03:58:21;93283.59;;;14.86;57.41
10988;BME280;5547;42.672;23.230;2022-08-01T04:00:47;93282.06;;;14.98;57.81
10988;BME280;5547;42.672;23.230;2022-08-01T04:03:13;93337.53;;;15.45;57.22
10988;BME280;5547;42.672;23.230;2022-08-01T04:05:42;93339.44;;;15.58;57.09
10988;BME280;5547;42.672;23.230;2022-08-01T04:08:08;93335.78;;;15.64;56.48
10988;BME280;5547;42.672;23.230;2022-08-01T04:10:33;93331.25;;;15.74;56.25
10988;BME280;5547;42.672;23.230;2022-08-01T04:12:59;93285.00;;;15.48;56.91
10988;BME280;5547;42.672;23.230;2022-08-01T04:15:25;93347.22;;;16.00;55.56
10988;BME280;5547;42.672;23.230;2022-08-01T04:17:50;93337.34;;;16.18;56.24
10988;BME280;5547;42.672;23.230;2022-08-01T04:20:15;93321.66;;;16.17;56.23
10988;BME280;5547;42.672;23.230;2022-08-01T04:22:42;93225.47;;;15.75;54.56
10988;BME280;5547;42.672;23.230;2022-08-01T04:25:13;93335.16;;;16.67;55.52
10988;BME280;5547;42.672;23.230;2022-08-01T04:27:43;93291.56;;;16.53;56.27
10988;BME280;5547;42.672;23.230;2022-08-01T04:30:11;93140.88;;;15.74;53.84
10988;BME280;5547;42.672;23.230;2022-08-01T04:32:38;93266.59;;;16.84;53.10
10988;BME280;5547;42.672;23.230;2022-08-01T04:35:07;93341.19;;;17.57;54.40
10988;BME280;5547;42.672;23.230;2022-08-01T04:37:35;93317.59;;;17.52;53.67
10988;BME280;5547;42.672;23.230;2022-08-01T04:40:03;93329.09;;;17.90;50.72
10988;BME280;5547;42.672;23.230;2022-08-01T04:42:30;93286.81;;;17.81;50.58
10988;BME280;5547;42.672;23.230;2022-08-01T04:44:57;93315.44;;;18.21;50.53
10988;BME280;5547;42.672;23.230;2022-08-01T04:47:24;93335.25;;;18.51;50.13
10988;BME280;5547;42.672;23.230;2022-08-01T04:49:50;93342.50;;;18.69;50.41
10988;BME280;5547;42.672;23.230;2022-08-01T04:52:16;93257.06;;;18.27;48.24
10988;BME280;5547;42.672;23.230;2022-08-01T04:54:43;93300.59;;;18.77;50.44
10988;BME280;5547;42.672;23.230;2022-08-01T04:57:08;93248.06;;;18.39;49.00
10988;BME280;5547;42.672;23.230;2022-08-01T04:59:36;93333.66;;;19.11;47.54
10988;BME280;5547;42.672;23.230;2022-08-01T05:02:06;93327.38;;;19.29;47.12
10988;BME280;5547;42.672;23.230;2022-08-01T05:04:32;93331.47;;;19.48;48.05
10988;BME280;5547;42.672;23.230;2022-08-01T05:06:57;93263.72;;;19.07;49.99
10988;BME280;5547;42.672;23.230;2022-08-01T05:09:23;93335.75;;;19.55;48.44
10988;BME280;5547;42.672;23.230;2022-08-01T05:11:48;93337.06;;;19.60;47.41
10988;BME280;5547;42.672;23.230;2022-08-01T05:14:14;93303.56;;;19.51;45.17
10988;BME280;5547;42.672;23.230;2022-08-01T05:16:39;93332.38;;;19.84;48.19
10988;BME280;5547;42.672;23.230;2022-08-01T05:19:04;93334.84;;;20.12;46.79
10988;BME280;5547;42.672;23.230;2022-08-01T05:21:30;93265.13;;;19.81;46.21
10988;BME280;5547;42.672;23.230;2022-08-01T05:23:55;93340.44;;;20.08;44.96
10988;BME280;5547;42.672;23.230;2022-08-01T05:26:21;93336.72;;;20.21;44.95
10988;BME280;5547;42.672;23.230;2022-08-01T05:28:46;93312.03;;;19.98;45.31
10988;BME280;5547;42.672;23.230;2022-08-01T05:31:12;93339.13;;;20.19;45.88
10988;BME280;5547;42.672;23.230;2022-08-01T05:33:37;93285.13;;;19.89;45.01
10988;BME280;5547;42.672;23.230;2022-08-01T05:36:03;93333.44;;;20.46;45.89
10988;BME280;5547;42.672;23.230;2022-08-01T05:38:29;93265.47;;;19.88;46.04
10988;BME280;5547;42.672;23.230;2022-08-01T05:40:54;93335.19;;;20.49;44.88
10988;BME280;5547;42.672;23.230;2022-08-01T05:43:19;93330.66;;;20.41;45.86
10988;BME280;5547;42.672;23.230;2022-08-01T05:45:45;93315.28;;;20.17;44.61
10988;BME280;5547;42.672;23.230;2022-08-01T05:48:11;93346.03;;;20.20;45.33
10988;BME280;5547;42.672;23.230;2022-08-01T05:50:36;93338.75;;;20.11;45.13
10988;BME280;5547;42.672;23.230;2022-08-01T05:53:02;93323.47;;;20.08;44.94
10988;BME280;5547;42.672;23.230;2022-08-01T05:55:27;93356.25;;;20.30;43.85
10988;BME280;5547;42.672;23.230;2022-08-01T05:57:53;93302.94;;;20.10;45.64
10988;BME280;5547;42.672;23.230;2022-08-01T06:00:18;93351.91;;;20.48;43.51
10988;BME280;5547;42.672;23.230;2022-08-01T06:02:44;93346.31;;;20.36;44.68
10988;BME280;5547;42.672;23.230;2022-08-01T06:05:10;93313.81;;;20.16;44.67
10988;BME280;5547;42.672;23.230;2022-08-01T06:07:35;93339.78;;;20.13;45.55
10988;BME280;5547;42.672;23.230;2022-08-01T06:10:01;93354.97;;;20.41;45.54
10988;BME280;5547;42.672;23.230;2022-08-01T06:12:26;93277.50;;;20.02;44.03
10988;BME280;5547;42.672;23.230;2022-08-01T06:14:52;93348.66;;;20.29;43.54
10988;BME280;5547;42.672;23.230;2022-08-01T06:17:17;93354.59;;;20.33;44.17
10988;BME280;5547;42.672;23.230;2022-08-01T06:19:43;93351.59;;;20.31;44.61
10988;BME280;5547;42.672;23.230;2022-08-01T06:22:09;93354.31;;;20.46;46.63
10988;BME280;5547;42.672;23.230;2022-08-01T06:24:34;93348.06;;;19.95;44.91
10988;BME280;5547;42.672;23.230;2022-08-01T06:27:00;93356.00;;;20.13;45.22
10988;BME280;5547;42.672;23.230;2022-08-01T06:29:25;93283.72;;;19.79;45.36
10988;BME280;5547;42.672;23.230;2022-08-01T06:31:50;93323.84;;;20.30;45.40
10988;BME280;5547;42.672;23.230;2022-08-01T06:34:16;93350.09;;;20.74;44.91
10988;BME280;5547;42.672;23.230;2022-08-01T06:36:41;93352.16;;;20.80;46.00
10988;BME280;5547;42.672;23.230;2022-08-01T06:39:07;93301.03;;;20.61;45.79
10988;BME280;5547;42.672;23.230;2022-08-01T06:41:32;93316.88;;;20.68;44.92
10988;BME280;5547;42.672;23.230;2022-08-01T06:43:57;93309.50;;;20.69;44.33
10988;BME280;5547;42.672;23.230;2022-08-01T06:46:25;93339.13;;;20.78;44.31
10988;BME280;5547;42.672;23.230;2022-08-01T06:48:50;93262.78;;;20.18;44.82
10988;BME280;5547;42.672;23.230;2022-08-01T06:51:16;93309.44;;;20.33;45.67
10988;BME280;5547;42.672;23.230;2022-08-01T06:53:44;93335.22;;;20.64;46.06
10988;BME280;5547;42.672;23.230;2022-08-01T06:56:10;93310.91;;;20.64;45.08
10988;BME280;5547;42.672;23.230;2022-08-01T06:58:35;93304.94;;;20.75;45.82
10988;BME280;5547;42.672;23.230;2022-08-01T07:01:03;93253.63;;;20.30;46.33
10988;BME280;5547;42.672;23.230;2022-08-01T07:03:31;93257.56;;;20.29;47.08
10988;BME280;5547;42.672;23.230;2022-08-01T07:05:57;93321.81;;;21.05;45.72
10988;BME280;5547;42.672;23.230;2022-08-01T07:08:22;93278.91;;;20.77;44.77
10988;BME280;5547;42.672;23.230;2022-08-01T07:10:48;93323.34;;;21.12;45.36
10988;BME280;5547;42.672;23.230;2022-08-01T07:13:13;93255.88;;;20.32;45.08
10988;BME280;5547;42.672;23.230;2022-08-01T07:15:41;93324.59;;;20.75;45.21
10988;BME280;5547;42.672;23.230;2022-08-01T07:18:06;93335.41;;;20.61;45.16
10988;BME280;5547;42.672;23.230;2022-08-01T07:20:32;93340.81;;;20.75;46.99
10988;BME280;5547;42.672;23.230;2022-08-01T07:22:57;93264.03;;;20.52;46.76
10988;BME280;5547;42.672;23.230;2022-08-01T07:25:23;93324.97;;;20.68;46.39
10988;BME280;5547;42.672;23.230;2022-08-01T07:27:48;93320.28;;;20.54;45.37
10988;BME280;5547;42.672;23.230;2022-08-01T07:30:14;93336.91;;;20.62;46.17
10988;BME280;5547;42.672;23.230;2022-08-01T07:32:39;93317.34;;;20.37;45.24
10988;BME280;5547;42.672;23.230;2022-08-01T07:35:06;93331.50;;;20.62;44.82
10988;BME280;5547;42.672;23.230;2022-08-01T07:37:31;93326.34;;;20.78;43.96
10988;BME280;5547;42.672;23.230;2022-08-01T07:39:56;93327.25;;;20.90;45.53
10988;BME280;5547;42.672;23.230;2022-08-01T07:42:22;93302.53;;;21.38;43.74
10988;BME280;5547;42.672;23.230;2022-08-01T07:44:47;93332.16;;;21.42;42.98
10988;BME280;5547;42.672;23.230;2022-08-01T07:47:13;93329.47;;;21.27;42.64
10988;BME280;5547;42.672;23.230;2022-08-01T07:49:38;93289.06;;;20.68;43.84
10988;BME280;5547;42.672;23.230;2022-08-01T07:52:04;93333.38;;;21.06;44.93
10988;BME280;5547;42.672;23.230;2022-08-01T07:54:31;93294.91;;;20.81;43.66
10988;BME280;5547;42.672;23.230;2022-08-01T07:56:57;93307.75;;;21.01;44.17
10988;BME280;5547;42.672;23.230;2022-08-01T07:59:22;93283.59;;;20.62;44.49
10988;BME280;5547;42.672;23.230;2022-08-01T08:01:50;93308.25;;;20.85;44.42
10988;BME280;5547;42.672;23.230;2022-08-01T08:04:16;93229.03;;;20.43;43.03
10988;BME280;5547;42.672;23.230;2022-08-01T08:06:42;93338.66;;;21.15;44.01
10988;BME280;5547;42.672;23.230;2022-08-01T08:09:08;93276.59;;;20.55;44.26
10988;BME280;5547;42.672;23.230;2022-08-01T08:11:33;93154.34;;;19.30;44.31
10988;BME280;5547;42.672;23.230;2022-08-01T08:13:59;93332.53;;;20.34;43.74
10988;BME280;5547;42.672;23.230;2022-08-01T08:16:24;93194.31;;;19.71;43.70
10988;BME280;5547;42.672;23.230;2022-08-01T08:18:50;93321.84;;;20.90;43.34
10988;BME280;5547;42.672;23.230;2022-08-01T08:21:15;93275.78;;;20.34;43.19
10988;BME280;5547;42.672;23.230;2022-08-01T08:23:41;93273.13;;;20.70;44.46
10988;BME280;5547;42.672;23.230;2022-08-01T08:26:25;93198.88;;;20.30;44.39
10988;BME280;5547;42.672;23.230;2022-08-01T08:28:50;93262.50;;;21.02;43.41
10988;BME280;5547;42.672;23.230;2022-08-01T08:31:16;93292.69;;;21.15;43.09
10988;BME280;5547;42.672;23.230;2022-08-01T08:33:41;93279.69;;;20.98;44.23
10988;BME280;5547;42.672;23.230;2022-08-01T08:36:07;93288.72;;;20.60;43.34
10988;BME280;5547;42.672;23.230;2022-08-01T08:38:32;93332.72;;;21.31;43.89
10988;BME280;5547;42.672;23.230;2022-08-01T08:40:57;93338.00;;;21.40;44.07
10988;BME280;5547;42.672;23.230;2022-08-01T08:43:25;93342.06;;;21.71;42.97
10988;BME280;5547;42.672;23.230;2022-08-01T08:45:51;93338.63;;;21.71;43.04
10988;BME280;5547;42.672;23.230;2022-08-01T08:48:17;93288.50;;;21.55;42.43
10988;BME280;5547;42.672;23.230;2022-08-01T08:50:45;93289.88;;;21.45;40.77
10988;BME280;5547;42.672;23.230;2022-08-01T08:53:13;93197.97;;;20.89;41.30
10988;BME280;5547;42.672;23.230;2022-08-01T08:55:41;93306.19;;;21.76;43.01
10988;BME280;5547;42.672;23.230;2022-08-01T08:58:11;93299.16;;;21.64;42.74
10988;BME280;5547;42.672;23.230;2022-08-01T09:00:39;93331.50;;;21.73;42.53
10988;BME280;5547;42.672;23.230;2022-08-01T09:03:04;93200.31;;;20.81;41.48
10988;BME280;5547;42.672;23.230;2022-08-01T09:05:30;93326.66;;;22.03;42.05
10988;BME280;5547;42.672;23.230;2022-08-01T09:07:55;93310.34;;;21.98;39.98
10988;BME280;5547;42.672;23.230;2022-08-01T09:10:21;93309.38;;;22.01;42.76
10988;BME280;5547;42.672;23.230;2022-08-01T09:18:36;93307.75;;;22.35;41.90
10988;BME280;5547;42.672;23.230;2022-08-01T09:23:46;93294.09;;;21.98;41.55
10988;BME280;5547;42.672;23.230;2022-08-01T09:26:14;93300.53;;;22.00;42.01
10988;BME280;5547;42.672;23.230;2022-08-01T09:28:42;93190.88;;;21.38;41.79
10988;BME280;5547;42.672;23.230;2022-08-01T09:31:14;93291.97;;;21.81;42.56
10988;BME280;5547;42.672;23.230;2022-08-01T09:33:50;93249.78;;;21.95;42.65
10988;BME280;5547;42.672;23.230;2022-08-01T09:36:20;93297.66;;;21.84;42.96
10988;BME280;5547;42.672;23.230;2022-08-01T09:38:49;93289.38;;;22.19;43.38
10988;BME280;5547;42.672;23.230;2022-08-01T09:41:16;93301.28;;;22.59;45.09
10988;BME280;5547;42.672;23.230;2022-08-01T09:43:49;93293.41;;;22.61;43.73
10988;BME280;5547;42.672;23.230;2022-08-01T09:46:15;93301.94;;;22.48;42.95
10988;BME280;5547;42.672;23.230;2022-08-01T09:49:03;93307.09;;;22.46;42.69
10988;BME280;5547;42.672;23.230;2022-08-01T09:51:30;93306.66;;;22.53;43.90
10988;BME280;5547;42.672;23.230;2022-08-01T09:53:56;93307.03;;;22.72;42.36
10988;BME280;5547;42.672;23.230;2022-08-01T09:56:22;93299.97;;;22.49;39.84
10988;BME280;5547;42.672;23.230;2022-08-01T09:58:58;93278.63;;;22.62;41.96
10988;BME280;5547;42.672;23.230;2022-08-01T10:01:24;93296.00;;;22.81;41.39
10988;BME280;5547;42.672;23.230;2022-08-01T10:04:06;93289.53;;;22.73;41.61
10988;BME280;5547;42.672;23.230;2022-08-01T10:06:32;93295.06;;;22.53;42.06
10988;BME280;5547;42.672;23.230;2022-08-01T10:08:57;93289.03;;;22.11;43.62
10988;BME280;5547;42.672;23.230;2022-08-01T10:11:23;93266.63;;;22.37;43.30
10988;BME280;5547;42.672;23.230;2022-08-01T10:13:49;93259.69;;;22.68;44.24
10988;BME280;5547;42.672;23.230;2022-08-01T10:16:15;93259.91;;;22.64;42.57
10988;BME280;5547;42.672;23.230;2022-08-01T10:18:41;93266.19;;;22.81;40.38
10988;BME280;5547;42.672;23.230;2022-08-01T10:21:08;93285.34;;;23.10;39.21
10988;BME280;5547;42.672;23.230;2022-08-01T10:23:36;93264.75;;;23.40;40.29
10988;BME280;5547;42.672;23.230;2022-08-01T10:26:02;93196.94;;;22.86;40.56
10988;BME280;5547;42.672;23.230;2022-08-01T10:28:30;93283.72;;;23.35;39.80
10988;BME280;5547;42.672;23.230;2022-08-01T10:30:57;93272.94;;;23.52;39.55
10988;BME280;5547;42.672;23.230;2022-08-01T10:33:24;93281.88;;;23.69;39.38
10988;BME280;5547;42.672;23.230;2022-08-01T10:35:52;93282.19;;;23.82;39.18
10988;BME280;5547;42.672;23.230;2022-08-01T10:38:18;93241.16;;;23.69;40.77
10988;BME280;5547;42.672;23.230;2022-08-01T10:40:44;93284.94;;;23.99;38.39
10988;BME280;5547;42.672;23.230;2022-08-01T10:43:11;93217.44;;;23.64;36.55
10988;BME280;5547;42.672;23.230;2022-08-01T10:45:38;93227.94;;;23.22;38.58
10988;BME280;5547;42.672;23.230;2022-08-01T10:50:45;93253.97;;;23.63;37.66
10988;BME280;5547;42.672;23.230;2022-08-01T10:53:23;93279.75;;;24.35;37.92
10988;BME280;5547;42.672;23.230;2022-08-01T10:58:39;93274.97;;;23.74;38.14
10988;BME280;5547;42.672;23.230;2022-08-01T11:01:26;93279.31;;;23.43;39.35
10988;BME280;5547;42.672;23.230;2022-08-01T11:09:05;93254.81;;;23.92;39.08
10988;BME280;5547;42.672;23.230;2022-08-01T11:12:00;93257.00;;;23.87;38.75
10988;BME280;5547;42.672;23.230;2022-08-01T11:14:27;93257.88;;;23.51;39.82
10988;BME280;5547;42.672;23.230;2022-08-01T11:16:53;93233.84;;;23.26;39.19
10988;BME280;5547;42.672;23.230;2022-08-01T11:19:18;93252.25;;;23.65;40.41
10988;BME280;5547;42.672;23.230;2022-08-01T11:27:20;93253.03;;;23.88;39.60
10988;BME280;5547;42.672;23.230;2022-08-01T11:32:52;93252.78;;;23.10;40.43
10988;BME280;5547;42.672;23.230;2022-08-01T11:35:18;93190.41;;;22.66;41.53
10988;BME280;5547;42.672;23.230;2022-08-01T11:37:49;93234.38;;;23.25;42.05
10988;BME280;5547;42.672;23.230;2022-08-01T11:40:29;93248.22;;;22.90;40.18
10988;BME280;5547;42.672;23.230;2022-08-01T11:45:55;93252.84;;;23.26;41.34
10988;BME280;5547;42.672;23.230;2022-08-01T11:48:22;93226.44;;;23.16;41.03
10988;BME280;5547;42.672;23.230;2022-08-01T11:50:52;93249.47;;;23.48;40.78
10988;BME280;5547;42.672;23.230;2022-08-01T11:53:18;93258.56;;;23.34;40.19
10988;BME280;5547;42.672;23.230;2022-08-01T11:55:54;93256.50;;;23.06;40.91
10988;BME280;5547;42.672;23.230;2022-08-01T11:58:25;93256.75;;;22.34;42.19
10988;BME280;5547;42.672;23.230;2022-08-01T12:00:52;93251.38;;;22.82;42.37
10988;BME280;5547;42.672;23.230;2022-08-01T12:03:33;93256.06;;;23.31;41.14
10988;BME280;5547;42.672;23.230;2022-08-01T12:05:58;93220.78;;;23.25;43.45
10988;BME280;5547;42.672;23.230;2022-08-01T12:08:25;93240.25;;;24.06;41.71
10988;BME280;5547;42.672;23.230;2022-08-01T12:10:51;93245.59;;;23.72;39.74
10988;BME280;5547;42.672;23.230;2022-08-01T12:13:17;93198.09;;;23.28;39.68
10988;BME280;5547;42.672;23.230;2022-08-01T12:15:43;93252.81;;;23.98;41.54
10988;BME280;5547;42.672;23.230;2022-08-01T12:18:10;93153.69;;;22.60;40.77
10988;BME280;5547;42.672;23.230;2022-08-01T12:20:38;93239.53;;;23.23;40.40
10988;BME280;5547;42.672;23.230;2022-08-01T12:23:06;93231.34;;;23.17;41.31
10988;BME280;5547;42.672;23.230;2022-08-01T12:25:33;93248.63;;;23.14;40.52
10988;BME280;5547;42.672;23.230;2022-08-01T12:28:01;93237.97;;;23.11;41.40
10988;BME280;5547;42.672;23.230;2022-08-01T12:30:28;93234.66;;;23.49;41.09
10988;BME280;5547;42.672;23.230;2022-08-01T12:32:55;93243.16;;;23.91;42.03
10988;BME280;5547;42.672;23.230;2022-08-01T12:35:23;93228.63;;;24.22;40.47
10988;BME280;5547;42.672;23.230;2022-08-01T12:37:51;93246.06;;;23.65;38.97
10988;BME280;5547;42.672;23.230;2022-08-01T12:40:20;93255.47;;;23.69;40.36
10988;BME280;5547;42.672;23.230;2022-08-01T12:42:48;93245.16;;;23.90;38.74
10988;BME280;5547;42.672;23.230;2022-08-01T12:45:26;93210.59;;;23.85;40.87
10988;BME280;5547;42.672;23.230;2022-08-01T12:47:53;93247.63;;;24.00;38.63
10988;BME280;5547;42.672;23.230;2022-08-01T12:50:22;93217.50;;;23.86;38.43
10988;BME280;5547;42.672;23.230;2022-08-01T12:52:49;93190.09;;;24.01;37.49
10988;BME280;5547;42.672;23.230;2022-08-01T12:55:20;93178.50;;;23.89;37.66
10988;BME280;5547;42.672;23.230;2022-08-01T12:57:48;93199.97;;;23.87;38.37
10988;BME280;5547;42.672;23.230;2022-08-01T13:00:26;93235.47;;;24.91;39.54
10988;BME280;5547;42.672;23.230;2022-08-01T13:03:09;93211.06;;;24.68;36.76
10988;BME280;5547;42.672;23.230;2022-08-01T13:08:14;93235.28;;;24.66;36.94
10988;BME280;5547;42.672;23.230;2022-08-01T13:10:40;93200.22;;;24.23;37.66
10988;BME280;5547;42.672;23.230;2022-08-01T13:13:07;93186.38;;;24.32;39.08
10988;BME280;5547;42.672;23.230;2022-08-01T13:15:34;93225.44;;;24.52;37.25
10988;BME280;5547;42.672;23.230;2022-08-01T13:18:21;93224.13;;;24.76;35.84
10988;BME280;5547;42.672;23.230;2022-08-01T13:20:46;93231.34;;;24.45;38.45
10988;BME280;5547;42.672;23.230;2022-08-01T13:23:15;93238.50;;;24.65;37.60
10988;BME280;5547;42.672;23.230;2022-08-01T13:25:53;93226.78;;;25.09;38.31
10988;BME280;5547;42.672;23.230;2022-08-01T13:28:24;93211.66;;;25.20;36.75
10988;BME280;5547;42.672;23.230;2022-08-01T13:31:07;93225.59;;;24.77;38.46
10988;BME280;5547;42.672;23.230;2022-08-01T13:33:46;93220.22;;;24.15;37.87
10988;BME280;5547;42.672;23.230;2022-08-01T13:36:15;93195.97;;;24.73;37.15
10988;BME280;5547;42.672;23.230;2022-08-01T13:38:41;93186.88;;;24.48;38.59
10988;BME280;5547;42.672;23.230;2022-08-01T13:41:26;93152.50;;;24.50;40.07
10988;BME280;5547;42.672;23.230;2022-08-01T13:43:51;93213.25;;;24.70;37.26
10988;BME280;5547;42.672;23.230;2022-08-01T13:46:17;93197.69;;;24.65;37.63
10988;BME280;5547;42.672;23.230;2022-08-01T13:48:43;93159.66;;;24.59;39.24
10988;BME280;5547;42.672;23.230;2022-08-01T13:51:08;93173.81;;;24.13;38.53
10988;BME280;5547;42.672;23.230;2022-08-01T13:53:34;93205.16;;;24.36;38.39